Mount Vernon, Alabama
Current Conditions -  °F | °C
As of 4:56 AM on Saturday 22 Nov 2014 (Local Time) from KMOB Reporting Station
Clear Clear  
Wind Chill: 44°   Ceiling: Unl
Heat Index: 48°   Visibility: 10mi
Dew Point: 41°   Wind: 8mph
Humidity: 77%   Direction: 70°ENE
Pressure: 30.29"   Gusts: NA
Location:  31.09°N, 88.01°W
Report Text: KMOB 221056Z AUTO 07007KT 10SM CLR 09/05 A3029 RMK AO2 SLP255 T00890050
Loading
Personal Weather Stations






























Interactive Weather Map New forecast layout! Learn more

10-Day Weather Forecast

Advertisements
Track Severe Weather on mobile